Time;durP1;ratioP1;P1;durP2;ratioP2;P2;SDS_P1;SDS_P2;PMS_P1;PMS_P2;Temp;Humidity;BMP_temperature;BMP_pressure;BME280_temperature;BME280_humidity;BME280_pressure;Samples;Min_cycle;Max_cycle;Signal;HPM_P1;HPM_P2
2022/01/11 00:00:27;;;;;;;53.00;34.13;;;;;;;0.76;59.80;100361.69;4388569;32;34069;-56
2022/01/11 00:03:16;;;;;;;51.72;32.72;;;;;;;0.66;60.26;100362.66;4388480;32;33492;-56
2022/01/11 00:05:59;;;;;;;50.17;31.83;;;;;;;0.86;59.79;100370.22;4389317;32;34111;-56
2022/01/11 00:08:33;;;;;;;49.42;28.65;;;;;;;0.76;59.99;100366.88;4375378;32;33787;-57
2022/01/11 00:11:04;;;;;;;50.67;28.05;;;;;;;0.61;60.54;100370.50;4389144;32;33647;-56
2022/01/11 00:13:35;;;;;;;46.03;28.27;;;;;;;0.66;60.46;100370.44;4388804;32;34047;-56
2022/01/11 00:16:03;;;;;;;45.15;28.33;;;;;;;0.72;60.21;100373.84;4383102;32;34644;-57
2022/01/11 00:18:31;;;;;;;45.75;28.27;;;;;;;0.78;59.96;100380.72;4374986;32;34142;-56
2022/01/11 00:20:59;;;;;;;43.28;25.52;;;;;;;0.74;59.89;100376.44;4373287;32;33051;-57
2022/01/11 00:25:56;;;;;;;42.40;25.95;;;;;;;0.38;60.15;100375.97;4373065;32;34529;-56
2022/01/11 00:28:25;;;;;;;44.03;26.85;;;;;;;0.48;60.17;100382.75;4374735;32;33771;-56
2022/01/11 00:30:54;;;;;;;43.42;26.08;;;;;;;0.46;60.21;100388.88;4373895;32;33417;-56
2022/01/11 00:33:31;;;;;;;40.72;26.77;;;;;;;0.53;59.75;100388.78;4373483;32;34789;-56
2022/01/11 00:35:59;;;;;;;41.58;24.95;;;;;;;0.61;59.80;100393.91;4373917;32;35269;-56
2022/01/11 00:38:32;;;;;;;40.70;26.98;;;;;;;0.53;60.21;100406.13;4373351;32;34879;-56
2022/01/11 00:41:03;;;;;;;43.03;26.33;;;;;;;0.38;60.67;100404.53;4373970;32;33581;-57
2022/01/11 00:43:31;;;;;;;42.88;28.98;;;;;;;0.48;60.22;100407.91;4373151;32;33994;-57
2022/01/11 00:45:59;;;;;;;44.85;26.83;;;;;;;0.64;59.82;100411.19;4373759;32;34486;-57
2022/01/11 00:48:27;;;;;;;42.03;27.40;;;;;;;0.25;60.46;100416.78;4374457;32;34935;-56
2022/01/11 00:50:56;;;;;;;41.35;25.05;;;;;;;0.26;60.75;100418.50;4372903;32;32965;-56
2022/01/11 00:53:23;;;;;;;42.58;26.42;;;;;;;0.27;60.06;100414.16;4373833;32;34751;-56
2022/01/11 00:55:51;;;;;;;36.45;23.55;;;;;;;0.35;60.50;100414.94;4372983;32;34316;-57
2022/01/11 00:58:19;;;;;;;;;;;;;;;0.23;60.94;100412.47;4376760;32;34481;-56
2022/01/11 01:00:47;;;;;;;36.45;21.75;;;;;;;0.51;60.18;100428.66;4388203;32;32966;-56
2022/01/11 01:03:14;;;;;;;34.50;20.75;;;;;;;0.35;60.16;100430.53;4388664;32;33932;-56
2022/01/11 01:05:43;;;;;;;34.08;22.15;;;;;;;0.47;59.94;100430.44;4379139;32;34195;-56
2022/01/11 01:08:10;;;;;;;34.67;22.45;;;;;;;0.34;60.55;100432.28;4373065;32;33473;-57
2022/01/11 01:10:40;;;;;;;;;;;;;;;0.31;60.69;100434.03;4375122;32;33198;-56
2022/01/11 01:13:13;;;;;;;32.25;17.60;;;;;;;0.23;60.39;100441.03;4372766;32;33180;-56
2022/01/11 01:15:47;;;;;;;31.98;18.80;;;;;;;0.25;60.25;100442.75;4374031;32;34213;-56
2022/01/11 01:18:21;;;;;;;31.37;20.83;;;;;;;0.25;60.36;100439.28;4360033;32;34030;-57
2022/01/11 01:20:50;;;;;;;31.08;20.27;;;;;;;0.10;60.51;100448.97;4373408;32;34259;-56
2022/01/11 01:23:19;;;;;;;31.90;21.37;;;;;;;0.20;60.32;100439.34;4373748;32;35289;-56
2022/01/11 01:25:47;;;;;;;31.52;19.67;;;;;;;0.05;60.98;100442.06;4359101;32;35123;-56
2022/01/11 01:28:16;;;;;;;33.03;19.25;;;;;;;0.19;60.98;100448.00;4374014;32;34419;-56
2022/01/11 01:30:44;;;;;;;30.35;17.25;;;;;;;0.16;60.85;100453.25;4373505;32;33510;-56
2022/01/11 01:33:13;;;;;;;;;;;;;;;0.18;60.64;100451.50;4373921;32;33623;-56
2022/01/11 01:35:43;;;;;;;26.85;15.43;;;;;;;0.32;60.59;100452.22;4373156;32;35721;-56
2022/01/11 01:38:11;;;;;;;26.08;14.77;;;;;;;0.32;59.83;100453.97;4372783;32;33860;-56
2022/01/11 01:40:43;;;;;;;;;;;;;;;0.41;59.83;100455.59;4381757;32;33986;-56
2022/01/11 01:43:12;;;;;;;28.62;15.18;;;;;;;0.53;59.47;100453.75;4387517;32;35058;-56
2022/01/11 01:45:40;;;;;;;29.17;15.25;;;;;;;0.58;59.22;100449.38;4388452;32;34594;-56
2022/01/11 01:48:08;;;;;;;27.80;16.95;;;;;;;0.38;59.77;100461.69;4387506;32;33949;-57
2022/01/11 01:50:36;;;;;;;29.42;17.85;;;;;;;0.38;59.68;100454.75;4386509;32;33671;-56
2022/01/11 01:53:04;;;;;;;28.90;17.77;;;;;;;0.21;60.24;100459.25;4388171;32;33904;-57
2022/01/11 01:55:32;;;;;;;26.67;17.17;;;;;;;0.27;60.48;100461.81;4387619;32;34133;-57
2022/01/11 01:58:00;;;;;;;28.70;16.80;;;;;;;0.36;60.31;100458.25;4388251;32;33816;-56
2022/01/11 02:00:29;;;;;;;28.92;17.75;;;;;;;0.56;60.04;100456.34;4372332;32;34263;-57
2022/01/11 02:03:04;;;;;;;28.55;17.87;;;;;;;0.68;59.88;100457.06;4388236;32;34001;-56
2022/01/11 02:05:32;;;;;;;30.00;17.85;;;;;;;0.64;60.44;100458.84;4387112;32;34582;-56
2022/01/11 02:08:00;;;;;;;28.55;17.50;;;;;;;0.70;60.37;100463.09;4387663;32;35225;-56
2022/01/11 02:10:28;;;;;;;26.20;16.27;;;;;;;0.70;60.03;100468.31;4386848;32;33498;-56
2022/01/11 02:12:56;;;;;;;26.70;15.82;;;;;;;0.87;59.66;100457.72;4387097;32;33917;-56
2022/01/11 02:15:24;;;;;;;29.00;17.27;;;;;;;0.80;60.20;100469.09;4388396;32;35005;-56
2022/01/11 02:17:52;;;;;;;28.45;16.20;;;;;;;0.90;59.46;100465.50;4373652;32;34123;-56
2022/01/11 02:20:20;;;;;;;21.17;12.20;;;;;;;0.93;59.12;100474.13;4389586;32;33312;-56
2022/01/11 02:22:47;;;;;;;25.52;15.15;;;;;;;0.87;58.19;100465.53;4388072;32;34130;-56
2022/01/11 02:25:15;;;;;;;25.83;15.82;;;;;;;1.09;56.63;100463.56;4389557;32;35104;-57
2022/01/11 02:27:42;;;;;;;28.92;18.08;;;;;;;0.97;57.50;100465.41;4390185;32;34870;-57
2022/01/11 02:30:10;;;;;;;27.37;17.40;;;;;;;0.88;58.33;100470.72;4379241;32;34477;-56
2022/01/11 02:32:50;;;;;;;;;;;;;;;1.04;58.16;100466.19;4376123;32;33491;-56
2022/01/11 02:35:18;;;;;;;28.75;15.38;;;;;;;1.07;58.15;100463.56;4373988;32;34859;-56
2022/01/11 02:37:49;;;;;;;28.08;17.08;;;;;;;1.10;58.26;100475.66;4375685;32;34215;-56
2022/01/11 02:40:16;;;;;;;29.42;16.62;;;;;;;1.22;57.99;100470.31;4374455;32;33225;-56
2022/01/11 02:42:43;;;;;;;30.75;18.20;;;;;;;1.11;58.10;100462.66;4375008;32;33690;-57
2022/01/11 02:45:13;;;;;;;30.77;18.52;;;;;;;1.05;58.27;100478.34;4374830;32;34032;-56
2022/01/11 02:47:41;;;;;;;28.23;18.00;;;;;;;1.08;58.53;100473.09;4373960;32;33736;-57
2022/01/11 02:50:09;;;;;;;30.55;18.87;;;;;;;1.06;58.77;100487.00;4374747;32;33143;-56
2022/01/11 02:52:38;;;;;;;30.75;18.42;;;;;;;1.09;58.35;100473.97;4374425;32;33195;-56
2022/01/11 02:55:12;;;;;;;30.90;18.48;;;;;;;1.08;58.39;100467.87;4374497;32;35104;-56
2022/01/11 02:57:40;;;;;;;29.30;17.25;;;;;;;1.12;58.40;100479.12;4374445;32;33753;-56
2022/01/11 03:00:11;;;;;;;28.90;17.67;;;;;;;0.90;58.68;100487.16;4374030;32;34257;-56
2022/01/11 03:02:38;;;;;;;28.98;17.40;;;;;;;0.95;58.66;100474.09;4375291;32;35036;-56
2022/01/11 03:05:10;;;;;;;30.23;18.92;;;;;;;0.98;58.56;100489.69;4373756;32;33751;-56
2022/01/11 03:07:38;;;;;;;30.73;18.55;;;;;;;0.89;58.39;100487.16;4374724;32;34980;-56
2022/01/11 03:12:54;;;;;;;31.85;18.75;;;;;;;0.84;58.56;100497.63;4374720;32;33853;-56
2022/01/11 03:15:22;;;;;;;31.45;19.85;;;;;;;0.87;58.43;100504.53;4374756;32;34372;-56
2022/01/11 03:17:49;;;;;;;;;;;;;;;0.70;58.71;100512.50;4373805;32;34052;-56
2022/01/11 03:20:17;;;;;;;31.27;17.55;;;;;;;0.66;59.05;100505.59;4374835;32;33782;-56
2022/01/11 03:22:47;;;;;;;31.73;19.92;;;;;;;0.83;58.81;100505.44;4374043;32;35459;-56
2022/01/11 03:25:16;;;;;;;31.20;20.50;;;;;;;0.65;59.11;100516.88;4389399;32;35205;-56
2022/01/11 03:27:44;;;;;;;32.50;18.98;;;;;;;0.65;58.94;100515.16;4389161;32;34307;-56
2022/01/11 03:30:13;;;;;;;31.23;18.25;;;;;;;0.70;59.05;100518.56;4388303;32;33557;-56
2022/01/11 03:32:41;;;;;;;34.45;21.02;;;;;;;0.84;57.87;100513.22;4388232;32;34513;-56
2022/01/11 03:35:10;;;;;;;34.13;21.50;;;;;;;0.65;58.99;100519.50;4388226;32;34147;-56
2022/01/11 03:37:39;;;;;;;34.38;20.15;;;;;;;0.49;59.59;100514.44;4389734;32;34193;-57
2022/01/11 03:40:10;;;;;;;33.42;18.42;;;;;;;0.76;58.36;100522.84;4388621;32;33707;-56
2022/01/11 03:42:38;;;;;;;34.17;20.85;;;;;;;0.71;58.66;100520.28;4388287;32;33964;-56
2022/01/11 03:45:08;;;;;;;33.50;20.73;;;;;;;0.66;59.12;100522.09;4374453;32;35512;-56
2022/01/11 03:47:36;;;;;;;32.38;21.15;;;;;;;0.65;58.96;100519.50;4373499;32;34622;-56
2022/01/11 03:50:05;;;;;;;33.35;21.15;;;;;;;0.51;59.27;100522.22;4374285;32;34337;-57
2022/01/11 03:52:32;;;;;;;32.08;18.75;;;;;;;0.70;58.64;100517.69;4374093;32;34528;-56
2022/01/11 03:57:31;;;;;;;32.72;18.67;;;;;;;0.63;58.99;100531.66;4373687;32;35167;-56
2022/01/11 04:00:06;;;;;;;30.85;20.40;;;;;;;0.50;59.13;100531.72;4374131;32;34045;-56
2022/01/11 04:02:41;;;;;;;29.83;19.30;;;;;;;0.52;59.38;100540.38;4374195;32;35261;-56
2022/01/11 04:05:12;;;;;;;31.35;20.25;;;;;;;0.54;59.06;100546.44;4374230;32;34254;-56
2022/01/11 04:07:41;;;;;;;32.28;19.92;;;;;;;0.57;59.11;100550.75;4374420;32;33999;-56
2022/01/11 04:10:09;;;;;;;31.83;18.87;;;;;;;0.62;58.96;100546.38;4374277;32;33466;-57
2022/01/11 04:12:37;;;;;;;33.53;20.88;;;;;;;0.63;59.02;100552.44;4389449;32;34127;-56
2022/01/11 04:15:05;;;;;;;34.85;21.50;;;;;;;0.59;59.11;100551.59;4387476;32;34371;-56
2022/01/11 04:17:33;;;;;;;32.03;20.48;;;;;;;0.61;58.67;100544.66;4388861;32;34041;-56
2022/01/11 04:20:01;;;;;;;;;;;;;;;0.73;57.78;100551.47;4389566;32;32740;-57
2022/01/11 04:22:29;;;;;;;34.28;18.12;;;;;;;0.74;57.83;100556.66;4387622;32;34993;-56
2022/01/11 04:24:56;;;;;;;32.35;20.35;;;;;;;0.58;58.49;100553.34;4389269;32;35413;-56
2022/01/11 04:27:24;;;;;;;32.13;18.98;;;;;;;0.64;58.56;100555.03;4388359;32;34761;-56
2022/01/11 04:29:52;;;;;;;32.97;19.27;;;;;;;0.54;58.46;100559.44;4389104;32;33108;-56
2022/01/11 04:32:20;;;;;;;34.80;20.95;;;;;;;0.50;58.82;100556.88;4388757;32;34755;-57
2022/01/11 04:34:48;;;;;;;34.08;21.90;;;;;;;0.56;58.30;100554.22;4386856;32;35314;-56
2022/01/11 04:37:15;;;;;;;33.95;21.42;;;;;;;0.24;58.79;100570.06;4389246;32;33869;-56
2022/01/11 04:39:43;;;;;;;33.60;21.23;;;;;;;0.09;59.22;100577.06;4388153;32;33773;-56
2022/01/11 04:42:11;;;;;;;34.72;19.80;;;;;;;0.17;59.13;100580.47;4383612;32;34593;-56
2022/01/11 04:44:38;;;;;;;36.13;20.23;;;;;;;0.16;58.88;100586.56;4373900;32;34332;-57
2022/01/11 04:47:06;;;;;;;31.70;18.00;;;;;;;0.17;59.18;100580.47;4373916;32;33832;-56
2022/01/11 04:49:33;;;;;;;35.63;19.70;;;;;;;0.22;58.78;100593.44;4373324;32;33707;-57
2022/01/11 04:52:02;;;;;;;35.53;22.25;;;;;;;-0.01;59.39;100596.19;4373622;32;33754;-56
2022/01/11 04:54:30;;;;;;;36.80;23.10;;;;;;;-0.07;59.42;100601.41;4374770;32;33763;-56
2022/01/11 04:56:57;;;;;;;37.13;21.23;;;;;;;0.03;59.33;100605.66;4373059;32;33775;-56
2022/01/11 04:59:27;;;;;;;36.83;22.80;;;;;;;0.09;59.31;100600.44;4374195;32;33492;-56
2022/01/11 05:01:54;;;;;;;33.53;21.65;;;;;;;0.07;59.54;100598.72;4373101;32;33704;-56
2022/01/11 05:04:22;;;;;;;33.72;21.10;;;;;;;0.14;59.54;100611.66;4375703;32;34569;-56
2022/01/11 05:06:49;;;;;;;39.30;19.27;;;;;;;-0.04;60.14;100610.03;4388656;32;33892;-57
2022/01/11 05:09:17;;;;;;;35.35;18.83;;;;;;;0.06;59.57;100608.25;4388283;32;34541;-56
2022/01/11 05:11:45;;;;;;;34.03;19.70;;;;;;;0.09;59.32;100612.56;4389082;32;34269;-56
2022/01/11 05:14:12;;;;;;;36.67;18.33;;;;;;;0.10;59.02;100622.09;4386584;32;34808;-56
2022/01/11 05:16:40;;;;;;;34.20;21.75;;;;;;;0.09;59.37;100629.00;4388790;32;33623;-56
2022/01/11 05:19:12;;;;;;;;;;;;;;;0.03;59.36;100634.22;4388335;32;33396;-57
2022/01/11 05:21:40;;;;;;;36.13;19.08;;;;;;;-0.04;59.73;100636.00;4389018;32;34151;-56
2022/01/11 05:24:09;;;;;;;37.95;20.40;;;;;;;0.08;59.32;100627.28;4376160;32;34450;-56
2022/01/11 05:26:37;;;;;;;41.75;24.45;;;;;;;-0.01;59.46;100635.12;4372958;32;34061;-56
2022/01/11 05:29:05;;;;;;;;;;;;;;;0.01;59.14;100632.53;4374035;32;33741;-57
2022/01/11 05:31:33;;;;;;;37.35;21.08;;;;;;;0.02;59.44;100637.72;4372652;32;34162;-56
2022/01/11 05:34:02;;;;;;;40.08;22.40;;;;;;;-0.03;59.24;100642.06;4373881;32;34309;-57
2022/01/11 05:36:30;;;;;;;37.55;23.17;;;;;;;-0.12;58.94;100642.94;4376331;32;33774;-56
2022/01/11 05:38:58;;;;;;;38.78;24.45;;;;;;;-0.21;59.06;100648.19;4386514;32;33229;-57
2022/01/11 05:41:25;;;;;;;35.72;20.77;;;;;;;-0.03;58.69;100655.91;4377746;32;33558;-56
2022/01/11 05:43:52;;;;;;;35.15;20.12;;;;;;;0.03;58.75;100655.00;4372970;32;35193;-56
2022/01/11 05:46:21;;;;;;;35.78;19.92;;;;;;;-0.18;59.39;100661.16;4378656;32;34428;-56
2022/01/11 05:48:49;;;;;;;37.10;21.42;;;;;;;-0.11;59.09;100667.19;4387467;32;33222;-56
2022/01/11 05:51:16;;;;;;;35.80;21.15;;;;;;;-0.11;58.77;100669.78;4383595;32;33450;-56
2022/01/11 05:53:44;;;;;;;;;;;;;;;-0.08;58.60;100669.75;4371983;32;34964;-56
2022/01/11 05:56:12;;;;;;;36.88;19.42;;;;;;;-0.18;59.39;100675.88;4373283;32;34553;-58
2022/01/11 05:58:39;;;;;;;36.83;20.58;;;;;;;-0.14;58.70;100682.78;4388118;32;33684;-56
2022/01/11 06:01:08;;;;;;;37.00;20.90;;;;;;;-0.24;58.78;100682.78;4387805;32;34717;-56
2022/01/11 06:03:37;;;;;;;40.50;21.00;;;;;;;-0.18;58.51;100675.88;4374768;32;35865;-56
2022/01/11 06:06:04;;;;;;;36.60;21.27;;;;;;;-0.16;58.46;100690.56;4374896;32;34129;-56
2022/01/11 06:08:32;;;;;;;36.72;19.85;;;;;;;-0.18;58.48;100686.25;4374469;32;33152;-56
2022/01/11 06:11:00;;;;;;;38.17;22.02;;;;;;;-0.34;58.56;100696.69;4373071;32;33984;-56
2022/01/11 06:13:28;;;;;;;36.00;20.17;;;;;;;-0.50;59.39;100690.66;4382059;32;34269;-56
2022/01/11 06:15:56;;;;;;;37.50;22.05;;;;;;;-0.16;58.68;100702.69;4378532;32;33587;-56
2022/01/11 06:18:24;;;;;;;35.05;18.67;;;;;;;-0.57;59.36;100701.91;4372997;32;34358;-56
2022/01/11 06:20:53;;;;;;;37.03;19.20;;;;;;;-0.42;59.32;100703.62;4382593;32;34490;-56
2022/01/11 06:23:21;;;;;;;33.20;18.50;;;;;;;-0.45;59.56;100712.25;4379628;32;34484;-56
2022/01/11 06:25:48;;;;;;;37.67;20.48;;;;;;;-0.45;59.24;100714.00;4381874;32;33912;-56
2022/01/11 06:28:16;;;;;;;32.80;17.45;;;;;;;-0.46;59.15;100720.91;4380096;32;34297;-56
2022/01/11 06:30:43;;;;;;;36.45;18.77;;;;;;;-0.54;59.01;100722.66;4373270;32;33869;-57
2022/01/11 06:33:11;;;;;;;30.70;16.73;;;;;;;-0.58;59.28;100739.09;4377847;32;34161;-56
2022/01/11 06:35:39;;;;;;;30.10;16.02;;;;;;;-0.65;58.82;100734.78;4380685;32;34131;-56
2022/01/11 06:38:07;;;;;;;30.00;16.27;;;;;;;0.15;73.22;100743.25;4374335;32;34268;-57
2022/01/11 06:40:34;;;;;;;;;;;;;;;-0.10;68.12;100752.00;4372704;32;34099;-57
2022/01/11 06:43:02;;;;;;;26.27;14.00;;;;;;;-0.08;61.52;100755.44;4381761;32;34370;-57
2022/01/11 06:45:29;;;;;;;;;;;;;;;-0.34;59.61;100753.78;4377239;32;35017;-56
2022/01/11 06:47:59;;;;;;;26.17;13.45;;;;;;;-0.25;58.19;100764.16;4387876;32;33413;-56
2022/01/11 06:50:30;;;;;;;26.92;14.23;;;;;;;-0.17;58.22;100758.94;4378635;32;33410;-56
2022/01/11 06:52:59;;;;;;;27.98;13.27;;;;;;;-0.44;57.43;100763.31;4372764;32;34368;-56
2022/01/11 06:55:28;;;;;;;25.25;13.30;;;;;;;-0.23;57.09;100766.75;4373002;32;34984;-56
2022/01/11 06:57:56;;;;;;;25.77;12.57;;;;;;;-0.16;55.70;100777.97;4380344;32;33008;-56
2022/01/11 07:00:25;;;;;;;23.35;12.52;;;;;;;-0.10;56.50;100777.94;4381018;32;34859;-56
2022/01/11 07:02:53;;;;;;;27.55;15.05;;;;;;;-0.18;56.09;100772.78;4385446;32;34141;-56
2022/01/11 07:05:21;;;;;;;32.13;16.80;;;;;;;-0.12;55.28;100775.34;4379123;32;33701;-56
2022/01/11 07:07:50;;;;;;;32.08;18.02;;;;;;;-0.50;56.15;100783.22;4386507;32;32964;-56
2022/01/11 07:10:18;;;;;;;34.20;18.85;;;;;;;-0.25;56.79;100784.06;4388264;32;33483;-56
2022/01/11 07:12:46;;;;;;;33.13;17.48;;;;;;;-0.27;56.16;100780.56;4389695;32;34654;-57
2022/01/11 07:15:14;;;;;;;29.52;17.60;;;;;;;-0.35;56.35;100788.41;4373753;32;34400;-56
2022/01/11 07:17:43;;;;;;;33.53;18.70;;;;;;;-0.39;59.56;100791.84;4386762;32;33642;-57
2022/01/11 07:20:10;;;;;;;42.67;23.75;;;;;;;-0.55;57.59;100792.72;4386044;32;34622;-56
2022/01/11 07:22:39;;;;;;;35.45;19.70;;;;;;;-0.44;56.96;100798.78;4402779;32;34443;-56
2022/01/11 07:25:07;;;;;;;33.40;19.62;;;;;;;-0.52;56.74;100796.19;4394982;32;33847;-56
2022/01/11 07:27:35;;;;;;;;;;;;;;;-0.47;56.74;100801.34;4387105;32;33710;-56
2022/01/11 07:30:05;;;;;;;34.30;18.08;;;;;;;0.06;66.73;100803.03;4385074;32;33198;-56
2022/01/11 07:32:35;;;;;;;31.17;17.48;;;;;;;0.23;70.27;100802.09;4384057;32;34123;-56
2022/01/11 07:35:03;;;;;;;;;;;;;;;0.14;63.69;100809.06;4385833;32;33825;-56
2022/01/11 07:37:31;;;;;;;32.33;16.35;;;;;;;0.22;58.83;100803.84;4376264;32;33123;-56
2022/01/11 07:40:00;;;;;;;27.40;14.55;;;;;;;0.27;57.36;100803.81;4378679;32;34011;-56
2022/01/11 07:42:29;;;;;;;31.60;17.35;;;;;;;0.10;56.95;100815.12;4388864;32;34914;-56
2022/01/11 07:44:58;;;;;;;33.83;17.75;;;;;;;0.10;57.08;100820.34;4379059;32;33823;-56
2022/01/11 07:47:27;;;;;;;32.13;17.35;;;;;;;0.12;56.84;100823.78;4388989;32;33593;-56
2022/01/11 07:49:55;;;;;;;29.75;16.67;;;;;;;0.15;55.45;100815.97;4380449;32;33494;-56
2022/01/11 07:52:23;;;;;;;40.42;21.45;;;;;;;0.25;55.40;100810.75;4374346;32;34143;-56
2022/01/11 07:54:52;;;;;;;35.38;18.33;;;;;;;0.44;54.94;100811.56;4373649;32;34466;-56
2022/01/11 07:57:20;;;;;;;20.15;10.57;;;;;;;0.66;54.46;100820.13;4386867;32;32086;-56
2022/01/11 07:59:48;;;;;;;20.70;11.65;;;;;;;0.95;51.00;100830.37;4389006;32;34229;-56
2022/01/11 08:02:23;;;;;;;18.50;11.43;;;;;;;0.81;50.52;100817.47;4395639;32;34535;-56
2022/01/11 08:04:53;;;;;;;17.92;9.80;;;;;;;1.08;49.67;100813.84;4404723;32;33802;-56
2022/01/11 08:07:22;;;;;;;18.35;10.10;;;;;;;1.23;49.66;100817.22;4391900;32;33478;-55
2022/01/11 08:09:50;;;;;;;20.10;11.30;;;;;;;0.91;50.45;100826.97;4389048;32;34010;-56
2022/01/11 08:12:18;;;;;;;;;;;;;;;1.35;48.75;100823.19;4389124;32;34336;-55
2022/01/11 08:14:45;;;;;;;16.35;8.80;;;;;;;1.50;47.80;100830.03;4388997;32;34561;-56
2022/01/11 08:17:14;;;;;;;20.73;10.73;;;;;;;1.44;48.48;100845.69;4387256;32;34427;-56
2022/01/11 08:19:42;;;;;;;20.55;11.38;;;;;;;1.50;48.19;100839.59;4386941;32;33742;-55
2022/01/11 08:22:11;;;;;;;18.58;11.25;;;;;;;1.56;47.34;100839.53;4389202;32;34066;-56
2022/01/11 08:24:39;;;;;;;19.73;12.32;;;;;;;1.71;46.75;100834.22;4384044;32;34500;-56
2022/01/11 08:27:07;;;;;;;18.25;11.38;;;;;;;1.85;46.56;100838.44;4377570;32;33861;-55
2022/01/11 08:29:35;;;;;;;18.85;11.05;;;;;;;1.94;46.40;100839.22;4391759;32;34953;-56
2022/01/11 08:32:04;;;;;;;21.12;11.48;;;;;;;1.89;46.55;100847.94;4397693;32;184678;-56
2022/01/11 08:34:32;;;;;;;19.10;11.35;;;;;;;2.08;45.92;100839.06;4404243;32;34506;-56
2022/01/11 08:36:59;;;;;;;18.27;10.80;;;;;;;2.17;45.53;100836.38;4398642;32;33103;-56
2022/01/11 08:39:27;;;;;;;19.55;10.80;;;;;;;1.85;46.50;100848.84;4376183;32;33965;-56
2022/01/11 08:41:55;;;;;;;17.50;10.93;;;;;;;2.21;45.64;100857.19;4392332;32;34296;-56
2022/01/11 08:44:24;;;;;;;19.92;11.12;;;;;;;2.24;45.50;100857.16;4403499;32;35034;-57
2022/01/11 08:46:52;;;;;;;19.17;10.38;;;;;;;2.20;45.11;100856.31;4403499;32;33656;-56
2022/01/11 08:49:21;;;;;;;18.37;10.60;;;;;;;2.17;44.84;100859.84;4374611;32;34688;-55
2022/01/11 08:51:49;;;;;;;21.90;11.02;;;;;;;2.54;43.92;100864.66;4374838;32;34313;-55
2022/01/11 08:54:18;;;;;;;17.75;10.88;;;;;;;2.65;43.67;100859.28;4384010;32;33995;-55
2022/01/11 08:56:47;;;;;;;17.27;10.40;;;;;;;2.82;43.55;100861.72;4376116;32;33327;-55
2022/01/11 08:59:14;;;;;;;18.12;9.80;;;;;;;2.40;44.58;100856.09;4377538;32;33495;-55
2022/01/11 09:01:41;;;;;;;17.48;10.27;;;;;;;2.84;44.06;100852.12;4399718;32;34358;-55
2022/01/11 09:04:11;;;;;;;16.55;10.45;;;;;;;2.18;44.43;100860.69;4403537;32;34256;-55
2022/01/11 09:06:39;;;;;;;18.23;10.77;;;;;;;2.79;43.05;100864.34;4403553;32;34538;-55
2022/01/11 09:09:18;;;;;;;18.27;10.23;;;;;;;2.78;43.33;100856.56;4404120;32;33584;-55
2022/01/11 09:11:45;;;;;;;17.45;10.30;;;;;;;2.81;43.28;100856.50;4402939;32;34400;-55
2022/01/11 09:14:14;;;;;;;17.52;10.45;;;;;;;3.04;43.18;100858.81;4404167;32;33677;-55
2022/01/11 09:16:41;;;;;;;17.73;10.43;;;;;;;2.71;43.22;100856.59;4403035;32;33635;-55
2022/01/11 09:19:16;;;;;;;17.48;10.05;;;;;;;2.83;43.21;100857.34;4403472;32;34055;-55
2022/01/11 09:21:45;;;;;;;16.20;10.68;;;;;;;2.84;43.13;100859.09;4403942;32;35091;-54
2022/01/11 09:24:12;;;;;;;;;;;;;;;2.84;42.98;100851.25;4403234;32;34046;-55
2022/01/11 09:26:40;;;;;;;20.27;10.52;;;;;;;3.28;42.51;100858.47;4404271;32;33178;-55
2022/01/11 09:29:08;;;;;;;16.95;10.68;;;;;;;3.32;42.01;100861.91;4401785;32;34978;-55
2022/01/11 09:31:36;;;;;;;16.67;9.95;;;;;;;3.16;42.03;100869.09;4403982;32;34291;-55
2022/01/11 09:34:04;;;;;;;15.23;9.27;;;;;;;3.41;41.28;100869.59;4403036;32;35118;-55
2022/01/11 09:36:32;;;;;;;20.35;10.95;;;;;;;3.16;41.92;100858.66;4403202;32;33120;-55
2022/01/11 09:39:00;;;;;;;18.42;10.63;;;;;;;3.46;41.66;100859.09;4403461;32;33713;-55
2022/01/11 09:41:27;;;;;;;18.50;11.00;;;;;;;3.74;40.68;100867.34;4402910;32;34055;-55
2022/01/11 09:43:55;;;;;;;18.33;11.80;;;;;;;3.73;40.90;100858.66;4403921;32;33783;-55
2022/01/11 09:46:23;;;;;;;18.15;10.48;;;;;;;3.90;40.26;100868.81;4388850;32;33200;-55
2022/01/11 09:48:52;;;;;;;17.25;10.25;;;;;;;3.98;39.89;100855.62;4403754;32;34186;-55
2022/01/11 09:51:21;;;;;;;18.55;10.40;;;;;;;3.77;39.80;100862.06;4402728;32;34994;-55
2022/01/11 09:53:48;;;;;;;19.95;10.98;;;;;;;3.81;40.64;100861.13;4403074;32;33859;-55
2022/01/11 09:56:17;;;;;;;16.73;9.77;;;;;;;3.77;40.42;100861.22;4403451;32;34445;-55
2022/01/11 09:58:45;;;;;;;18.33;10.38;;;;;;;3.85;40.48;100862.81;4402744;32;33441;-55
2022/01/11 10:01:17;;;;;;;19.15;11.18;;;;;;;3.86;40.24;100853.25;4403633;32;34302;-55
2022/01/11 10:04:06;;;;;;;18.27;10.75;;;;;;;3.94;40.21;100859.19;4398842;32;34641;-54
2022/01/11 10:06:37;;;;;;;17.98;11.80;;;;;;;3.83;40.45;100850.66;4387910;32;33283;-54
2022/01/11 10:09:25;;;;;;;19.08;10.40;;;;;;;3.98;39.84;100847.78;4387905;32;33987;-55
2022/01/11 10:11:56;;;;;;;17.92;10.55;;;;;;;3.86;40.62;100848.00;4387333;32;34098;-55
2022/01/11 10:14:24;;;;;;;19.73;11.68;;;;;;;3.93;40.07;100850.47;4388240;32;34659;-55
2022/01/11 10:17:04;;;;;;;17.58;10.65;;;;;;;3.94;40.34;100843.50;4387069;32;34662;-55
2022/01/11 10:19:33;;;;;;;18.95;10.13;;;;;;;3.96;40.74;100849.56;4387969;32;34885;-55
2022/01/11 10:22:03;;;;;;;17.92;10.27;;;;;;;4.06;40.31;100848.50;4387602;32;34123;-55
2022/01/11 10:24:42;;;;;;;17.25;9.32;;;;;;;4.19;40.25;100850.87;4387094;32;33662;-55
2022/01/11 10:27:24;;;;;;;18.02;9.30;;;;;;;4.19;40.27;100853.50;4388324;32;33185;-55
2022/01/11 10:29:55;;;;;;;16.08;9.02;;;;;;;4.05;40.14;100856.38;4387195;32;34088;-55
2022/01/11 10:32:34;;;;;;;14.85;9.07;;;;;;;4.04;39.87;100855.50;4387834;32;33468;-55
2022/01/11 10:35:08;;;;;;;16.73;10.30;;;;;;;4.18;39.78;100852.66;4387682;32;34946;-55
2022/01/11 10:37:40;;;;;;;16.65;9.32;;;;;;;4.08;39.85;100848.50;4387088;32;32912;-55
2022/01/11 10:40:14;;;;;;;16.27;9.23;;;;;;;4.04;40.31;100860.75;4388382;32;33956;-55
2022/01/11 10:42:49;;;;;;;15.93;8.68;;;;;;;4.32;39.19;100847.16;4388933;32;34299;-55
2022/01/11 10:45:24;;;;;;;15.57;9.52;;;;;;;4.40;39.13;100852.25;4389899;32;34392;-55
2022/01/11 10:47:57;;;;;;;15.93;8.43;;;;;;;4.21;39.26;100863.06;4389503;32;33515;-55
2022/01/11 10:50:28;;;;;;;14.60;8.30;;;;;;;4.52;38.73;100852.88;4389261;32;33480;-55
2022/01/11 10:52:59;;;;;;;14.05;8.55;;;;;;;4.21;39.40;100849.12;4390044;32;33664;-55
2022/01/11 10:55:29;;;;;;;14.50;8.35;;;;;;;4.42;39.26;100847.84;4388977;32;33719;-55
2022/01/11 10:58:05;;;;;;;15.57;8.68;;;;;;;4.28;39.83;100854.19;4389579;32;34268;-55
2022/01/11 11:00:35;;;;;;;15.27;9.15;;;;;;;4.42;39.37;100850.47;4389339;32;33779;-55
2022/01/11 11:03:17;;;;;;;16.90;8.80;;;;;;;4.47;39.54;100857.34;4389400;32;35310;-55
2022/01/11 11:05:59;;;;;;;14.30;8.00;;;;;;;4.59;39.31;100850.13;4389925;32;34855;-55
2022/01/11 11:08:30;;;;;;;15.93;8.73;;;;;;;4.70;39.10;100850.78;4388828;32;34505;-55
2022/01/11 11:11:00;;;;;;;14.52;8.40;;;;;;;4.45;39.98;100853.87;4389780;32;33912;-55
2022/01/11 11:13:31;;;;;;;15.48;8.80;;;;;;;4.66;39.39;100846.50;4389234;32;34991;-56
2022/01/11 11:16:14;;;;;;;13.80;8.48;;;;;;;4.66;39.27;100847.37;4375802;32;34722;-55
2022/01/11 11:18:44;;;;;;;15.95;8.90;;;;;;;4.72;38.77;100852.47;4389595;32;33178;-55
2022/01/11 11:21:22;;;;;;;15.43;9.07;;;;;;;4.63;38.99;100854.41;4388681;32;33572;-55
2022/01/11 11:23:56;;;;;;;16.37;8.80;;;;;;;4.85;38.90;100850.47;4389583;32;34056;-55
2022/01/11 11:26:26;;;;;;;14.02;8.77;;;;;;;4.73;39.38;100854.22;4388944;32;33767;-55
2022/01/11 11:28:54;;;;;;;14.23;8.65;;;;;;;4.72;39.33;100852.47;4388849;32;33161;-56
2022/01/11 11:31:22;;;;;;;16.17;9.30;;;;;;;4.82;39.26;100850.53;4389659;32;34321;-55
2022/01/11 11:33:50;;;;;;;16.08;9.32;;;;;;;4.82;39.07;100853.13;4387030;32;34354;-55
2022/01/11 11:36:19;;;;;;;13.88;8.32;;;;;;;4.76;39.28;100850.66;4387171;32;34256;-56
2022/01/11 11:39:02;;;;;;;15.30;9.50;;;;;;;4.98;41.07;100853.66;4361122;32;33790;-55